createdAt,value
2023-04-18T00:00:05.111Z,388.00
2023-04-18T00:01:05.150Z,387.00
2023-04-18T00:02:05.307Z,387.00
2023-04-18T00:03:05.464Z,384.00
2023-04-18T00:04:05.603Z,385.00
2023-04-18T00:05:05.391Z,385.00
2023-04-18T00:06:05.292Z,385.00
2023-04-18T00:07:05.363Z,383.00
2023-04-18T00:08:05.423Z,383.00
2023-04-18T00:09:05.465Z,383.00
2023-04-18T00:10:05.478Z,383.00
2023-04-18T00:11:05.517Z,383.00
2023-04-18T00:12:05.576Z,385.00
2023-04-18T00:13:05.672Z,387.00
2023-04-18T00:14:05.614Z,386.00
2023-04-18T00:15:05.671Z,385.00
2023-04-18T00:16:05.732Z,385.00
2023-04-18T00:17:05.760Z,386.00
2023-04-18T00:18:05.909Z,385.00
2023-04-18T00:19:05.839Z,385.00
2023-04-18T00:20:05.860Z,384.00
2023-04-18T00:21:05.890Z,383.00
2023-04-18T00:22:05.928Z,384.00
2023-04-18T00:23:05.977Z,386.00
2023-04-18T00:24:06.035Z,387.00
2023-04-18T00:25:06.066Z,387.00
2023-04-18T00:26:06.161Z,389.00
2023-04-18T00:27:06.219Z,389.00
2023-04-18T00:28:06.213Z,386.00
2023-04-18T00:29:06.223Z,386.00
2023-04-18T00:30:06.315Z,385.00
2023-04-18T00:31:06.414Z,383.00
2023-04-18T00:32:06.398Z,385.00
2023-04-18T00:33:06.513Z,386.00
2023-04-18T00:34:06.462Z,387.00
2023-04-18T00:35:06.512Z,387.00
2023-04-18T00:36:06.578Z,388.00
2023-04-18T00:37:06.586Z,388.00
2023-04-18T00:38:06.627Z,389.00
2023-04-18T00:39:06.663Z,389.00
2023-04-18T00:40:06.755Z,389.00
2023-04-18T00:41:06.795Z,391.00
2023-04-18T00:42:06.835Z,391.00
2023-04-18T00:43:06.875Z,390.00
2023-04-18T00:44:06.949Z,390.00
2023-04-18T00:45:06.948Z,388.00
2023-04-18T00:46:07.040Z,387.00
2023-04-18T00:47:07.068Z,385.00
2023-04-18T00:48:07.139Z,386.00
2023-04-18T00:49:07.200Z,388.00
2023-04-18T00:50:07.190Z,385.00
2023-04-18T00:51:07.253Z,385.00
2023-04-18T00:52:07.264Z,384.00
2023-04-18T00:53:07.304Z,384.00
2023-04-18T00:54:07.356Z,386.00
2023-04-18T00:55:07.561Z,386.00
2023-04-18T00:56:07.447Z,386.00
2023-04-18T00:57:07.483Z,385.00
2023-04-18T00:58:07.506Z,385.00
2023-04-18T00:59:07.643Z,384.00
2023-04-18T01:00:07.626Z,383.00
2023-04-18T01:01:07.712Z,381.00
2023-04-18T01:02:07.760Z,382.00
2023-04-18T01:03:07.901Z,383.00
2023-04-18T01:04:07.939Z,383.00
2023-04-18T01:05:07.958Z,381.00
2023-04-18T01:06:07.876Z,380.00
2023-04-18T01:07:07.943Z,382.00
2023-04-18T01:08:08.028Z,379.00
2023-04-18T01:09:08.080Z,379.00
2023-04-18T01:10:08.085Z,379.00
2023-04-18T01:11:08.140Z,379.00
2023-04-18T01:12:08.186Z,380.00
2023-04-18T01:13:08.230Z,379.00
2023-04-18T01:14:08.404Z,379.00
2023-04-18T01:15:08.330Z,379.00
2023-04-18T01:16:08.408Z,379.00
2023-04-18T01:17:08.454Z,377.00
2023-04-18T01:18:08.441Z,378.00
2023-04-18T01:19:08.507Z,379.00
2023-04-18T01:20:08.557Z,381.00
2023-04-18T01:21:08.553Z,381.00
2023-04-18T01:22:08.608Z,381.00
2023-04-18T01:23:08.669Z,381.00
2023-04-18T01:24:08.709Z,379.00
2023-04-18T01:25:08.724Z,379.00
2023-04-18T01:26:08.787Z,379.00
2023-04-18T01:27:08.819Z,380.00
2023-04-18T01:28:08.912Z,383.00
2023-04-18T01:29:08.912Z,381.00
2023-04-18T01:30:08.992Z,377.00
2023-04-18T01:31:09.143Z,375.00
2023-04-18T01:32:09.076Z,374.00
2023-04-18T01:33:09.081Z,372.00
2023-04-18T01:34:09.194Z,371.00
2023-04-18T01:35:09.192Z,372.00
2023-04-18T01:36:09.225Z,373.00
2023-04-18T01:37:09.302Z,374.00
2023-04-18T01:38:09.358Z,376.00
2023-04-18T01:39:09.381Z,376.00
2023-04-18T01:40:09.473Z,377.00
2023-04-18T01:41:09.550Z,377.00
2023-04-18T01:42:09.543Z,379.00
2023-04-18T01:43:09.594Z,381.00
2023-04-18T01:44:09.654Z,382.00
2023-04-18T01:45:09.689Z,382.00
2023-04-18T01:46:09.719Z,382.00
2023-04-18T01:47:09.797Z,381.00
2023-04-18T01:48:09.941Z,382.00
2023-04-18T01:49:09.902Z,383.00
2023-04-18T01:50:09.921Z,382.00
2023-04-18T01:51:10.014Z,382.00
2023-04-18T01:52:10.037Z,381.00
2023-04-18T01:53:10.075Z,381.00
2023-04-18T01:54:10.137Z,381.00
2023-04-18T01:55:10.191Z,382.00
2023-04-18T01:56:10.293Z,381.00
2023-04-18T01:57:10.282Z,380.00
2023-04-18T01:58:10.320Z,379.00
2023-04-18T01:59:10.356Z,378.00
2023-04-18T02:00:10.421Z,378.00
2023-04-18T02:01:10.564Z,378.00
2023-04-18T02:02:10.545Z,379.00
2023-04-18T02:03:10.734Z,378.00
2023-04-18T02:04:10.660Z,376.00
2023-04-18T02:05:10.637Z,376.00
2023-04-18T02:06:10.667Z,376.00
2023-04-18T02:07:10.785Z,374.00
2023-04-18T02:08:10.804Z,373.00
2023-04-18T02:09:10.819Z,371.00
2023-04-18T02:10:10.909Z,373.00
2023-04-18T02:11:10.940Z,373.00
2023-04-18T02:12:10.979Z,371.00
2023-04-18T02:13:11.136Z,372.00
2023-04-18T02:14:11.116Z,372.00
2023-04-18T02:15:11.152Z,373.00
2023-04-18T02:16:11.248Z,372.00
2023-04-18T02:17:11.261Z,372.00
2023-04-18T02:18:11.261Z,372.00
2023-04-18T02:19:11.357Z,374.00
2023-04-18T02:20:11.413Z,373.00
2023-04-18T02:21:11.450Z,373.00
2023-04-18T02:22:11.468Z,374.00
2023-04-18T02:23:11.492Z,373.00
2023-04-18T02:24:11.872Z,373.00
2023-04-18T02:25:11.697Z,372.00
2023-04-18T02:26:11.682Z,371.00
2023-04-18T02:27:11.722Z,374.00
2023-04-18T02:28:11.771Z,375.00
2023-04-18T02:29:11.855Z,376.00
2023-04-18T02:30:11.865Z,379.00
2023-04-18T02:31:11.932Z,378.00
2023-04-18T02:32:12.156Z,380.00
2023-04-18T02:33:12.065Z,380.00
2023-04-18T02:34:12.262Z,378.00
2023-04-18T02:35:12.133Z,379.00
2023-04-18T02:36:12.197Z,380.00
2023-04-18T02:37:12.260Z,378.00
2023-04-18T02:38:12.276Z,377.00
2023-04-18T02:39:12.355Z,378.00
2023-04-18T02:40:12.434Z,379.00
2023-04-18T02:41:12.448Z,378.00
2023-04-18T02:42:12.493Z,377.00
2023-04-18T02:43:12.523Z,377.00
2023-04-18T02:44:12.880Z,376.00
2023-04-18T02:45:12.654Z,377.00
2023-04-18T02:46:12.744Z,376.00
2023-04-18T02:47:12.717Z,377.00
2023-04-18T02:48:12.784Z,378.00
2023-04-18T02:49:12.857Z,381.00
2023-04-18T02:50:12.910Z,383.00
2023-04-18T02:51:12.949Z,380.00
2023-04-18T02:52:12.996Z,378.00
2023-04-18T02:53:13.047Z,380.00
2023-04-18T02:54:13.359Z,381.00
2023-04-18T02:55:13.145Z,380.00
2023-04-18T02:56:13.218Z,380.00
2023-04-18T02:57:13.256Z,380.00
2023-04-18T02:58:13.307Z,382.00
2023-04-18T02:59:13.361Z,384.00
2023-04-18T03:00:13.572Z,383.00
2023-04-18T03:01:13.476Z,382.00
2023-04-18T03:02:13.559Z,385.00
2023-04-18T03:03:13.558Z,383.00
2023-04-18T03:04:13.842Z,381.00
2023-04-18T03:05:13.671Z,380.00
2023-04-18T03:06:59.274Z,377.00
2023-04-18T03:07:59.230Z,377.00
2023-04-18T03:08:59.221Z,375.00
2023-04-18T03:09:59.230Z,372.00
2023-04-18T03:10:59.230Z,372.00
2023-04-18T03:11:59.183Z,373.00
2023-04-18T03:12:59.232Z,375.00
2023-04-18T03:13:59.231Z,376.00
2023-04-18T03:14:59.182Z,378.00
2023-04-18T03:15:59.271Z,376.00
2023-04-18T03:16:59.164Z,373.00
2023-04-18T03:17:59.226Z,373.00
2023-04-18T03:18:59.187Z,372.00
2023-04-18T03:19:59.158Z,376.00
2023-04-18T03:20:59.175Z,375.00
2023-04-18T03:21:59.174Z,375.00
2023-04-18T03:22:59.175Z,374.00
2023-04-18T03:23:59.148Z,373.00
2023-04-18T03:24:59.162Z,375.00
2023-04-18T03:25:59.158Z,374.00
2023-04-18T03:26:59.101Z,372.00
2023-04-18T03:27:59.132Z,373.00
2023-04-18T03:28:59.122Z,371.00
2023-04-18T03:29:59.079Z,369.00
2023-04-18T03:30:59.107Z,367.00
2023-04-18T03:31:59.109Z,369.00
2023-04-18T03:32:59.146Z,370.00
2023-04-18T03:33:59.069Z,371.00
2023-04-18T03:34:59.088Z,370.00
2023-04-18T03:35:59.162Z,368.00
2023-04-18T03:36:59.242Z,371.00
2023-04-18T03:37:59.274Z,372.00
2023-04-18T03:38:59.351Z,372.00
2023-04-18T03:39:59.394Z,373.00
2023-04-18T03:40:59.465Z,373.00
2023-04-18T03:41:59.539Z,375.00
2023-04-18T03:42:59.581Z,376.00
2023-04-18T03:43:59.616Z,377.00
2023-04-18T03:44:59.690Z,377.00
2023-04-18T03:45:59.768Z,380.00
2023-04-18T03:46:59.813Z,381.00
2023-04-18T03:47:59.861Z,381.00
2023-04-18T03:48:59.923Z,379.00
2023-04-18T03:50:00.038Z,378.00
2023-04-18T03:51:00.065Z,377.00
2023-04-18T03:52:00.117Z,377.00
2023-04-18T03:53:00.164Z,378.00
2023-04-18T03:54:00.231Z,377.00
2023-04-18T03:55:00.316Z,376.00
2023-04-18T03:56:00.344Z,379.00
2023-04-18T03:57:00.451Z,379.00
2023-04-18T03:58:00.459Z,378.00
2023-04-18T03:59:00.647Z,377.00
2023-04-18T04:00:00.584Z,377.00
2023-04-18T04:01:00.631Z,377.00
2023-04-18T04:02:00.768Z,376.00
2023-04-18T04:03:00.907Z,375.00
2023-04-18T04:04:00.855Z,372.00
2023-04-18T04:05:00.906Z,371.00
2023-04-18T04:06:00.903Z,371.00
2023-04-18T04:07:00.980Z,371.00
2023-04-18T04:08:01.006Z,372.00
2023-04-18T04:09:01.122Z,372.00
2023-04-18T04:10:01.165Z,373.00
2023-04-18T04:11:01.180Z,373.00
2023-04-18T04:12:01.287Z,370.00
2023-04-18T04:13:01.348Z,372.00
2023-04-18T04:14:01.350Z,374.00
2023-04-18T04:15:01.393Z,374.00
2023-04-18T04:16:01.594Z,375.00
2023-04-18T04:17:01.624Z,376.00
2023-04-18T04:18:01.697Z,376.00
2023-04-18T04:19:01.645Z,376.00
2023-04-18T04:20:01.771Z,376.00
2023-04-18T04:21:01.756Z,376.00
2023-04-18T04:22:01.792Z,378.00
2023-04-18T04:23:01.843Z,380.00
2023-04-18T04:24:01.908Z,382.00
2023-04-18T04:25:02.016Z,384.00
2023-04-18T04:26:02.034Z,382.00
2023-04-18T04:27:02.112Z,383.00
2023-04-18T04:28:02.155Z,385.00
2023-04-18T04:29:02.202Z,385.00
2023-04-18T04:30:02.265Z,389.00
2023-04-18T04:31:02.327Z,389.00
2023-04-18T04:32:02.478Z,390.00
2023-04-18T04:33:02.446Z,388.00
2023-04-18T04:34:02.505Z,388.00
2023-04-18T04:35:02.590Z,384.00
2023-04-18T04:36:02.569Z,383.00
2023-04-18T04:37:02.665Z,383.00
2023-04-18T04:38:02.716Z,382.00
2023-04-18T04:39:02.765Z,380.00
2023-04-18T04:40:02.857Z,377.00
2023-04-18T04:41:02.875Z,380.00
2023-04-18T04:42:02.924Z,379.00
2023-04-18T04:43:03.030Z,378.00
2023-04-18T04:44:03.033Z,380.00
2023-04-18T04:45:03.202Z,381.00
2023-04-18T04:46:03.161Z,383.00
2023-04-18T04:47:03.182Z,383.00
2023-04-18T04:48:03.255Z,384.00
2023-04-18T04:49:03.277Z,385.00
2023-04-18T04:50:03.326Z,384.00
2023-04-18T04:51:03.381Z,382.00
2023-04-18T04:52:03.439Z,382.00
2023-04-18T04:53:03.487Z,381.00
2023-04-18T04:54:03.572Z,379.00
2023-04-18T04:55:03.603Z,381.00
2023-04-18T04:56:03.650Z,381.00
2023-04-18T04:57:03.684Z,380.00
2023-04-18T04:58:03.723Z,378.00
2023-04-18T04:59:03.777Z,380.00
2023-04-18T05:00:03.856Z,379.00
2023-04-18T05:01:03.926Z,380.00
2023-04-18T05:02:04.041Z,379.00
2023-04-18T05:03:04.113Z,377.00
2023-04-18T05:04:04.213Z,377.00
2023-04-18T05:05:04.134Z,376.00
2023-04-18T05:06:04.193Z,377.00
2023-04-18T05:07:04.315Z,374.00
2023-04-18T05:08:04.342Z,375.00
2023-04-18T05:09:04.414Z,374.00
2023-04-18T05:10:04.453Z,374.00
2023-04-18T05:11:04.542Z,374.00
2023-04-18T05:12:04.588Z,378.00
2023-04-18T05:13:04.591Z,376.00
2023-04-18T05:14:04.675Z,375.00
2023-04-18T05:15:04.731Z,375.00
2023-04-18T05:16:04.790Z,375.00
2023-04-18T05:17:04.914Z,376.00
2023-04-18T05:18:04.958Z,378.00
2023-04-18T05:19:04.940Z,378.00
2023-04-18T05:20:05.015Z,381.00
2023-04-18T05:21:05.074Z,379.00
2023-04-18T05:22:05.124Z,377.00
2023-04-18T05:23:05.280Z,377.00
2023-04-18T05:24:05.182Z,377.00
2023-04-18T05:25:05.298Z,379.00
2023-04-18T05:26:05.313Z,383.00
2023-04-18T05:27:05.370Z,384.00
2023-04-18T05:28:05.409Z,384.00
2023-04-18T05:29:05.469Z,381.00
2023-04-18T05:30:05.526Z,380.00
2023-04-18T05:31:05.685Z,380.00
2023-04-18T05:32:05.602Z,379.00
2023-04-18T05:33:05.708Z,382.00
2023-04-18T05:34:05.720Z,391.00
2023-04-18T05:35:05.784Z,401.00
2023-04-18T05:36:05.830Z,409.00
2023-04-18T05:37:05.887Z,421.00
2023-04-18T05:38:05.952Z,433.00
2023-04-18T05:39:06.007Z,446.00
2023-04-18T05:40:06.109Z,457.00
2023-04-18T05:41:06.071Z,467.00
2023-04-18T05:42:06.134Z,504.00
2023-04-18T05:43:06.184Z,519.00
2023-04-18T05:44:07.070Z,539.00
2023-04-18T05:45:06.319Z,562.00
2023-04-18T05:46:06.378Z,582.00
2023-04-18T05:47:06.666Z,597.00
2023-04-18T05:48:06.465Z,624.00
2023-04-18T05:49:06.559Z,638.00
2023-04-18T05:50:06.585Z,652.00
2023-04-18T05:51:06.691Z,667.00
2023-04-18T05:52:06.704Z,676.00
2023-04-18T05:53:06.775Z,685.00
2023-04-18T05:54:06.821Z,698.00
2023-04-18T05:55:06.892Z,704.00
2023-04-18T05:56:06.976Z,717.00
2023-04-18T05:57:07.009Z,719.00
2023-04-18T05:58:07.105Z,722.00
2023-04-18T05:59:07.119Z,723.00
2023-04-18T06:00:07.165Z,725.00
2023-04-18T06:01:07.243Z,727.00
2023-04-18T06:02:07.290Z,725.00
2023-04-18T06:03:10.085Z,723.00
2023-04-18T06:04:07.464Z,725.00
2023-04-18T06:05:07.459Z,723.00
2023-04-18T06:06:07.308Z,724.00
2023-04-18T06:07:07.340Z,725.00
2023-04-18T06:08:07.338Z,728.00
2023-04-18T06:09:07.284Z,730.00
2023-04-18T06:10:07.312Z,729.00
2023-04-18T06:11:07.292Z,724.00
2023-04-18T06:12:07.316Z,720.00
2023-04-18T06:13:07.253Z,720.00
2023-04-18T06:14:07.267Z,722.00
2023-04-18T06:15:07.220Z,722.00
2023-04-18T06:16:07.276Z,723.00
2023-04-18T06:17:07.258Z,722.00
2023-04-18T06:18:07.306Z,719.00
2023-04-18T06:19:07.236Z,716.00
2023-04-18T06:20:07.209Z,711.00
2023-04-18T06:21:07.230Z,715.00
2023-04-18T06:22:07.225Z,719.00
2023-04-18T06:23:07.175Z,721.00
2023-04-18T06:24:07.234Z,722.00
2023-04-18T06:25:07.185Z,717.00
2023-04-18T06:26:07.212Z,720.00
2023-04-18T06:27:09.370Z,722.00
2023-04-18T06:28:08.181Z,726.00
2023-04-18T06:29:07.207Z,726.00
2023-04-18T06:30:07.161Z,724.00
2023-04-18T06:31:07.583Z,723.00
2023-04-18T06:32:07.187Z,724.00
2023-04-18T06:33:07.588Z,723.00
2023-04-18T06:34:07.151Z,724.00
2023-04-18T06:35:07.569Z,636.00
2023-04-18T06:36:07.136Z,600.00
2023-04-18T06:37:07.111Z,555.00
2023-04-18T06:38:07.130Z,519.00
2023-04-18T06:39:07.137Z,498.00
2023-04-18T06:40:07.080Z,484.00
2023-04-18T06:41:07.562Z,482.00
2023-04-18T06:42:07.154Z,486.00
2023-04-18T06:43:07.178Z,497.00
2023-04-18T06:44:07.221Z,524.00
2023-04-18T06:45:07.265Z,538.00
2023-04-18T06:46:07.352Z,548.00
2023-04-18T06:47:07.336Z,552.00
2023-04-18T06:48:07.514Z,558.00
2023-04-18T06:49:07.360Z,566.00
2023-04-18T06:50:07.360Z,569.00
2023-04-18T06:51:07.428Z,575.00
2023-04-18T06:52:07.472Z,581.00
2023-04-18T06:53:07.532Z,589.00
2023-04-18T06:54:07.537Z,592.00
2023-04-18T06:55:07.538Z,596.00
2023-04-18T06:56:07.554Z,600.00
2023-04-18T06:57:08.594Z,604.00
2023-04-18T06:58:07.558Z,609.00
2023-04-18T06:59:07.571Z,614.00
2023-04-18T07:00:07.657Z,617.00
2023-04-18T07:01:07.743Z,619.00
2023-04-18T07:02:07.803Z,623.00
2023-04-18T07:03:09.508Z,627.00
2023-04-18T07:04:07.836Z,632.00
2023-04-18T07:05:07.816Z,637.00
2023-04-18T07:06:07.729Z,640.00
2023-04-18T07:07:07.779Z,644.00
2023-04-18T07:08:07.773Z,647.00
2023-04-18T07:09:07.757Z,649.00
2023-04-18T07:10:07.751Z,655.00
2023-04-18T07:11:07.747Z,660.00
2023-04-18T07:12:07.720Z,661.00
2023-04-18T07:13:07.707Z,662.00
2023-04-18T07:14:07.715Z,665.00
2023-04-18T07:15:07.680Z,667.00
2023-04-18T07:16:07.681Z,669.00
2023-04-18T07:17:07.756Z,667.00
2023-04-18T07:18:07.771Z,673.00
2023-04-18T07:19:07.653Z,681.00
2023-04-18T07:20:07.661Z,684.00
2023-04-18T07:21:08.028Z,683.00
2023-04-18T07:22:07.664Z,683.00
2023-04-18T07:23:07.692Z,686.00
2023-04-18T07:24:07.737Z,688.00
2023-04-18T07:25:07.641Z,690.00
2023-04-18T07:26:07.645Z,690.00
2023-04-18T07:27:07.614Z,691.00
2023-04-18T07:28:07.599Z,690.00
2023-04-18T07:29:07.608Z,691.00
2023-04-18T07:30:08.084Z,690.00
2023-04-18T07:31:07.603Z,687.00
2023-04-18T07:32:08.647Z,687.00
2023-04-18T07:33:07.645Z,683.00
2023-04-18T07:34:07.602Z,691.00
2023-04-18T07:35:08.130Z,693.00
2023-04-18T07:36:07.565Z,704.00
2023-04-18T07:37:07.572Z,723.00
2023-04-18T07:38:07.580Z,738.00
2023-04-18T07:39:07.605Z,749.00
2023-04-18T07:40:07.559Z,758.00
2023-04-18T07:41:07.537Z,763.00
2023-04-18T07:42:07.522Z,768.00
2023-04-18T07:43:07.549Z,768.00
2023-04-18T07:44:07.535Z,772.00
2023-04-18T07:45:07.523Z,777.00
2023-04-18T07:46:07.512Z,783.00
2023-04-18T07:47:07.483Z,787.00
2023-04-18T07:48:07.607Z,783.00
2023-04-18T07:49:07.498Z,779.00
2023-04-18T07:50:07.560Z,774.00
2023-04-18T07:51:07.461Z,767.00
2023-04-18T07:52:07.448Z,759.00
2023-04-18T07:53:07.481Z,753.00
2023-04-18T07:54:07.487Z,747.00
2023-04-18T07:55:07.585Z,740.00
2023-04-18T07:56:07.453Z,738.00
2023-04-18T07:57:07.456Z,741.00
2023-04-18T07:58:07.469Z,742.00
2023-04-18T07:59:07.542Z,744.00
2023-04-18T08:00:07.596Z,745.00
2023-04-18T08:01:07.649Z,743.00
2023-04-18T08:02:07.777Z,739.00
2023-04-18T08:03:07.945Z,736.00
2023-04-18T08:04:07.964Z,734.00
2023-04-18T08:05:08.053Z,736.00
2023-04-18T08:06:07.763Z,738.00
2023-04-18T08:07:07.785Z,738.00
2023-04-18T08:08:07.814Z,738.00
2023-04-18T08:09:07.831Z,733.00
2023-04-18T08:10:07.909Z,730.00
2023-04-18T08:11:07.954Z,731.00
2023-04-18T08:12:07.986Z,730.00
2023-04-18T08:13:07.965Z,731.00
2023-04-18T08:14:08.032Z,735.00
2023-04-18T08:15:08.080Z,735.00
2023-04-18T08:16:08.157Z,736.00
2023-04-18T08:17:08.151Z,737.00
2023-04-18T08:18:08.203Z,742.00
2023-04-18T08:19:08.205Z,744.00
2023-04-18T08:20:08.314Z,739.00
2023-04-18T08:21:08.247Z,738.00
2023-04-18T08:22:08.291Z,741.00
2023-04-18T08:23:11.280Z,740.00
2023-04-18T08:24:08.351Z,736.00
2023-04-18T08:25:08.576Z,735.00
2023-04-18T08:26:08.319Z,732.00
2023-04-18T08:27:08.322Z,729.00
2023-04-18T08:28:08.332Z,749.00
2023-04-18T08:29:08.274Z,748.00
2023-04-18T08:30:08.285Z,750.00
2023-04-18T08:31:08.413Z,753.00
2023-04-18T08:32:08.325Z,751.00
2023-04-18T08:33:08.274Z,745.00
2023-04-18T08:34:08.271Z,730.00
2023-04-18T08:35:08.274Z,717.00
2023-04-18T08:36:08.244Z,707.00
2023-04-18T08:37:08.225Z,693.00
2023-04-18T08:38:08.357Z,680.00
2023-04-18T08:39:08.252Z,664.00
2023-04-18T08:40:08.216Z,656.00
2023-04-18T08:41:08.207Z,647.00
2023-04-18T08:42:08.218Z,634.00
2023-04-18T08:43:08.218Z,631.00
2023-04-18T08:44:08.178Z,633.00
2023-04-18T08:45:08.239Z,645.00
2023-04-18T08:46:08.256Z,677.00
2023-04-18T08:47:08.297Z,698.00
2023-04-18T08:48:08.376Z,724.00
2023-04-18T08:49:10.688Z,748.00
2023-04-18T08:50:08.352Z,795.00
2023-04-18T08:51:08.447Z,843.00
2023-04-18T08:52:08.382Z,837.00
2023-04-18T08:53:08.350Z,846.00
2023-04-18T08:54:08.367Z,857.00
2023-04-18T08:55:08.360Z,865.00
2023-04-18T08:56:08.304Z,874.00
2023-04-18T08:57:08.324Z,878.00
2023-04-18T08:58:08.329Z,879.00
2023-04-18T08:59:08.297Z,886.00
2023-04-18T09:00:08.315Z,930.00
2023-04-18T09:01:08.326Z,941.00
2023-04-18T09:02:08.322Z,946.00
2023-04-18T09:03:08.324Z,943.00
2023-04-18T09:04:08.279Z,946.00
2023-04-18T09:05:08.217Z,952.00
2023-04-18T09:06:08.259Z,949.00
2023-04-18T09:07:08.230Z,953.00
2023-04-18T09:08:08.237Z,960.00
2023-04-18T09:09:08.243Z,969.00
2023-04-18T09:10:08.198Z,984.00
2023-04-18T09:11:08.193Z,988.00
2023-04-18T09:12:08.210Z,983.00
2023-04-18T09:13:08.213Z,979.00
2023-04-18T09:14:08.240Z,991.00
2023-04-18T09:15:08.252Z,1003.00
2023-04-18T09:16:08.249Z,1010.00
2023-04-18T09:17:08.195Z,1011.00
2023-04-18T09:18:08.184Z,1010.00
2023-04-18T09:19:08.156Z,1014.00
2023-04-18T09:20:08.161Z,1016.00
2023-04-18T09:21:08.197Z,1031.00
2023-04-18T09:22:08.173Z,1037.00
2023-04-18T09:23:08.145Z,1039.00
2023-04-18T09:24:08.159Z,1044.00
2023-04-18T09:25:08.157Z,1035.00
2023-04-18T09:26:08.206Z,1032.00
2023-04-18T09:27:08.105Z,1032.00
2023-04-18T09:28:08.062Z,1035.00
2023-04-18T09:29:08.123Z,1028.00
2023-04-18T09:30:08.089Z,1029.00
2023-04-18T09:31:08.152Z,910.00
2023-04-18T09:32:08.095Z,820.00
2023-04-18T09:33:08.153Z,735.00
2023-04-18T09:34:08.069Z,731.00
2023-04-18T09:35:08.273Z,608.00
2023-04-18T09:36:08.034Z,565.00
2023-04-18T09:37:08.173Z,559.00
2023-04-18T09:38:08.033Z,553.00
2023-04-18T09:39:08.055Z,551.00
2023-04-18T09:40:08.049Z,557.00
2023-04-18T09:41:08.101Z,559.00
2023-04-18T09:42:08.034Z,562.00
2023-04-18T09:43:08.053Z,565.00
2023-04-18T09:44:08.033Z,569.00
2023-04-18T09:45:08.089Z,576.00
2023-04-18T09:46:08.458Z,580.00
2023-04-18T09:47:07.995Z,585.00
2023-04-18T09:48:08.291Z,593.00
2023-04-18T09:49:09.660Z,602.00
2023-04-18T09:50:08.122Z,619.00
2023-04-18T09:51:08.365Z,641.00
2023-04-18T09:52:08.041Z,650.00
2023-04-18T09:53:08.123Z,663.00
2023-04-18T09:54:08.006Z,675.00
2023-04-18T09:55:08.013Z,691.00
2023-04-18T09:56:07.943Z,702.00
2023-04-18T09:57:07.890Z,708.00
2023-04-18T09:58:07.913Z,715.00
2023-04-18T09:59:07.927Z,725.00
2023-04-18T10:00:07.917Z,739.00
2023-04-18T10:01:07.881Z,753.00
2023-04-18T10:02:08.152Z,763.00
2023-04-18T10:03:08.027Z,775.00
2023-04-18T10:04:07.971Z,784.00
2023-04-18T10:05:07.881Z,785.00
2023-04-18T10:06:07.862Z,784.00
2023-04-18T10:07:07.882Z,778.00
2023-04-18T10:08:07.870Z,783.00
2023-04-18T10:09:07.828Z,780.00
2023-04-18T10:10:07.838Z,779.00
2023-04-18T10:11:07.840Z,775.00
2023-04-18T10:12:07.835Z,772.00
2023-04-18T10:13:07.857Z,775.00
2023-04-18T10:14:07.866Z,774.00
2023-04-18T10:15:07.771Z,772.00
2023-04-18T10:16:08.160Z,764.00
2023-04-18T10:17:07.791Z,759.00
2023-04-18T10:18:07.783Z,759.00
2023-04-18T10:19:07.734Z,758.00
2023-04-18T10:20:07.754Z,753.00
2023-04-18T10:21:07.766Z,754.00
2023-04-18T10:22:07.739Z,755.00
2023-04-18T10:23:07.767Z,753.00
2023-04-18T10:24:07.745Z,749.00
2023-04-18T10:25:07.738Z,745.00
2023-04-18T10:26:07.795Z,745.00
2023-04-18T10:27:09.028Z,748.00
2023-04-18T10:28:07.723Z,748.00
2023-04-18T10:29:07.706Z,737.00
2023-04-18T10:30:08.990Z,712.00
2023-04-18T10:31:07.721Z,714.00
2023-04-18T10:32:07.842Z,726.00
2023-04-18T10:33:10.564Z,728.00
2023-04-18T10:34:08.673Z,736.00
2023-04-18T10:35:07.673Z,730.00
2023-04-18T10:36:07.654Z,729.00
2023-04-18T10:37:07.681Z,729.00
2023-04-18T10:38:07.654Z,739.00
2023-04-18T10:39:07.629Z,740.00
2023-04-18T10:40:07.645Z,745.00
2023-04-18T10:41:07.599Z,746.00
2023-04-18T10:42:07.658Z,751.00
2023-04-18T10:43:07.609Z,747.00
2023-04-18T10:44:08.495Z,746.00
2023-04-18T10:45:07.621Z,745.00
2023-04-18T10:46:14.257Z,738.00
2023-04-18T10:47:08.656Z,731.00
2023-04-18T10:48:07.685Z,733.00
2023-04-18T10:49:07.585Z,728.00
2023-04-18T10:50:07.603Z,723.00
2023-04-18T10:51:07.566Z,727.00
2023-04-18T10:52:07.549Z,724.00
2023-04-18T10:53:07.592Z,729.00
2023-04-18T10:54:07.562Z,733.00
2023-04-18T10:55:07.550Z,735.00
2023-04-18T10:56:07.530Z,728.00
2023-04-18T10:57:07.625Z,725.00
2023-04-18T10:58:07.497Z,721.00
2023-04-18T10:59:07.548Z,714.00
2023-04-18T11:00:07.519Z,713.00
2023-04-18T11:01:07.518Z,708.00
2023-04-18T11:02:07.503Z,707.00
2023-04-18T11:03:07.594Z,703.00
2023-04-18T11:04:07.530Z,703.00
2023-04-18T11:05:07.495Z,700.00
2023-04-18T11:06:07.445Z,696.00
2023-04-18T11:07:07.454Z,697.00
2023-04-18T11:08:07.472Z,695.00
2023-04-18T11:09:07.467Z,699.00
2023-04-18T11:10:07.440Z,704.00
2023-04-18T11:11:07.439Z,704.00
2023-04-18T11:12:07.438Z,707.00
2023-04-18T11:13:07.394Z,721.00
2023-04-18T11:14:07.415Z,727.00
2023-04-18T11:15:07.445Z,735.00
2023-04-18T11:16:07.408Z,750.00
2023-04-18T11:17:07.440Z,754.00
2023-04-18T11:18:07.405Z,753.00
2023-04-18T11:19:07.390Z,759.00
2023-04-18T11:20:07.634Z,765.00
2023-04-18T11:21:07.367Z,775.00
2023-04-18T11:22:07.405Z,802.00
2023-04-18T11:23:07.363Z,811.00
2023-04-18T11:24:08.172Z,808.00
2023-04-18T11:25:07.687Z,800.00
2023-04-18T11:26:07.384Z,776.00
2023-04-18T11:27:07.389Z,758.00
2023-04-18T11:28:07.396Z,741.00
2023-04-18T11:29:07.425Z,734.00
2023-04-18T11:30:07.489Z,717.00
2023-04-18T11:31:07.498Z,695.00
2023-04-18T11:32:07.650Z,684.00
2023-04-18T11:33:07.754Z,667.00
2023-04-18T11:34:07.583Z,656.00
2023-04-18T11:35:07.665Z,650.00
2023-04-18T11:36:07.668Z,642.00
2023-04-18T11:37:07.687Z,631.00
2023-04-18T11:38:07.722Z,626.00
2023-04-18T11:39:07.779Z,619.00
2023-04-18T11:40:07.783Z,612.00
2023-04-18T11:41:07.846Z,604.00
2023-04-18T11:42:07.889Z,597.00
2023-04-18T11:43:07.959Z,590.00
2023-04-18T11:44:07.960Z,585.00
2023-04-18T11:45:08.024Z,579.00
2023-04-18T11:46:08.090Z,575.00
2023-04-18T11:47:08.131Z,568.00
2023-04-18T11:48:08.229Z,562.00
2023-04-18T11:49:08.241Z,558.00
2023-04-18T11:50:08.274Z,556.00
2023-04-18T11:51:08.280Z,552.00
2023-04-18T11:52:08.405Z,547.00
2023-04-18T11:53:08.427Z,542.00
2023-04-18T11:54:08.502Z,535.00
2023-04-18T11:55:08.553Z,531.00
2023-04-18T11:56:08.565Z,530.00
2023-04-18T11:57:08.663Z,526.00
2023-04-18T11:58:08.673Z,523.00
2023-04-18T11:59:08.746Z,519.00
2023-04-18T12:00:08.760Z,513.00
2023-04-18T12:01:08.844Z,506.00
2023-04-18T12:02:16.164Z,500.00
2023-04-18T12:03:11.795Z,496.00
2023-04-18T12:04:09.219Z,492.00
2023-04-18T12:05:09.075Z,485.00
2023-04-18T12:06:08.933Z,480.00
2023-04-18T12:07:08.847Z,480.00
2023-04-18T12:08:08.828Z,479.00
2023-04-18T12:09:08.833Z,478.00
2023-04-18T12:10:08.867Z,476.00
2023-04-18T12:11:08.829Z,477.00
2023-04-18T12:12:08.841Z,480.00
2023-04-18T12:13:08.835Z,481.00
2023-04-18T12:14:08.814Z,480.00
2023-04-18T12:15:08.763Z,478.00
2023-04-18T12:16:08.770Z,479.00
2023-04-18T12:17:08.767Z,476.00
2023-04-18T12:18:08.969Z,474.00
2023-04-18T12:19:08.756Z,473.00
2023-04-18T12:20:08.814Z,472.00
2023-04-18T12:21:08.846Z,470.00
2023-04-18T12:22:08.867Z,470.00
2023-04-18T12:23:08.903Z,468.00
2023-04-18T12:24:08.991Z,466.00
2023-04-18T12:25:09.041Z,464.00
2023-04-18T12:26:09.072Z,462.00
2023-04-18T12:27:09.191Z,464.00
2023-04-18T12:28:09.124Z,464.00
2023-04-18T12:29:09.158Z,462.00